Time;durP1;ratioP1;P1;durP2;ratioP2;P2;SDS_P1;SDS_P2;PMS_P1;PMS_P2;Temp;Humidity;BMP_temperature;BMP_pressure;BME280_temperature;BME280_humidity;BME280_pressure;Samples;Min_cycle;Max_cycle;Signal;HPM_P1;HPM_P2
2023/07/21 00:01:07;;;;;;;4.28;2.38;;;;;;;27.28;54.75;99217.50;5066503;28;20482;-80
2023/07/21 00:03:33;;;;;;;3.22;2.17;;;;;;;27.28;54.90;99227.47;5050526;28;20396;-79
2023/07/21 00:06:06;;;;;;;5.70;2.92;;;;;;;27.16;54.93;99208.66;5050189;28;20029;-80
2023/07/21 00:08:34;;;;;;;7.65;2.38;;;;;;;27.29;54.89;99226.47;5050825;28;20065;-79
2023/07/21 00:11:00;;;;;;;4.18;3.05;;;;;;;27.35;55.16;99231.34;5050329;28;20063;-80
2023/07/21 00:13:26;;;;;;;5.43;3.60;;;;;;;27.25;55.73;99225.03;5050505;28;20041;-79
2023/07/21 00:15:52;;;;;;;3.80;1.98;;;;;;;27.31;55.46;99227.19;5049874;28;20048;-79
2023/07/21 00:18:19;;;;;;;4.50;2.38;;;;;;;27.24;56.06;99226.91;5049699;28;20491;-80
2023/07/21 00:20:44;;;;;;;2.65;2.05;;;;;;;27.00;56.79;99212.91;5049486;28;20083;-79
2023/07/21 00:23:10;;;;;;;2.63;2.13;;;;;;;27.06;56.79;99223.19;5049624;28;20060;-80
2023/07/21 00:25:35;;;;;;;4.50;2.35;;;;;;;26.95;57.15;99219.59;5049478;28;20041;-80
2023/07/21 00:28:01;;;;;;;7.22;1.83;;;;;;;26.96;57.01;99232.13;5049474;28;20025;-80
2023/07/21 00:30:26;;;;;;;3.67;2.20;;;;;;;26.82;57.31;99232.53;5048502;28;20127;-80
2023/07/21 00:32:52;;;;;;;7.97;2.50;;;;;;;26.73;57.81;99217.97;5049759;28;20029;-80
2023/07/21 00:35:17;;;;;;;3.75;2.25;;;;;;;26.66;57.33;99222.22;5062863;28;20045;-80
2023/07/21 00:37:43;;;;;;;2.50;1.98;;;;;;;26.47;57.35;99197.81;5049590;28;20120;-80
2023/07/21 00:40:09;;;;;;;5.55;2.72;;;;;;;26.52;57.20;99203.66;5049857;28;20044;-80
2023/07/21 00:42:36;;;;;;;6.05;3.03;;;;;;;26.38;57.67;99196.75;5035692;28;20491;-80
2023/07/21 00:45:02;;;;;;;6.35;1.70;;;;;;;26.52;57.77;99222.56;5049714;28;20021;-80
2023/07/21 00:47:29;;;;;;;4.50;2.10;;;;;;;26.50;58.04;99228.13;5049261;28;20045;-80
2023/07/21 00:49:56;;;;;;;4.93;2.25;;;;;;;26.52;58.12;99220.72;5048941;28;20060;-80
2023/07/21 00:52:23;;;;;;;2.65;2.20;;;;;;;26.33;58.19;99199.03;5051680;28;20388;-80
2023/07/21 00:54:49;;;;;;;4.38;2.20;;;;;;;26.15;58.63;99179.88;5053165;28;20116;-80
2023/07/21 00:57:17;;;;;;;4.28;2.40;;;;;;;26.42;58.61;99228.81;5053266;28;20112;-79
2023/07/21 00:59:43;;;;;;;7.15;2.70;;;;;;;26.31;58.11;99209.97;5053957;28;20086;-80
2023/07/21 01:02:09;;;;;;;2.92;1.95;;;;;;;26.40;58.12;99225.38;5043049;28;20081;-79
2023/07/21 01:04:35;;;;;;;3.45;2.45;;;;;;;26.35;57.70;99205.16;5033329;28;20021;-80
2023/07/21 01:07:03;;;;;;;4.95;2.20;;;;;;;26.29;57.83;99205.69;5036616;28;20506;-80
2023/07/21 01:09:29;;;;;;;5.10;2.83;;;;;;;26.31;57.81;99214.53;5053533;28;20044;-80
2023/07/21 01:11:55;;;;;;;4.75;2.63;;;;;;;26.32;58.04;99210.81;5053434;28;20174;-80
2023/07/21 01:14:21;;;;;;;4.03;2.25;;;;;;;26.25;58.25;99214.06;5053228;28;20132;-81
2023/07/21 01:16:47;;;;;;;7.68;2.35;;;;;;;26.29;57.85;99200.28;5053910;28;20040;-80
2023/07/21 01:19:14;;;;;;;5.28;2.95;;;;;;;26.27;57.64;99225.63;5052524;28;20043;-81
2023/07/21 01:21:51;;;;;;;2.90;2.17;;;;;;;26.06;57.92;99208.59;5051995;28;20067;-81
2023/07/21 01:24:41;;;;;;;11.88;3.95;;;;;;;25.77;59.04;99220.03;5053189;28;20151;-81
2023/07/21 01:27:10;;;;;;;4.30;2.45;;;;;;;25.66;59.79;99231.75;5053515;28;20090;-81
2023/07/21 01:29:39;;;;;;;4.35;2.42;;;;;;;25.54;59.84;99216.59;5052953;28;20032;-82
2023/07/21 01:32:08;;;;;;;5.40;2.38;;;;;;;25.32;61.19;99228.34;5051429;28;20538;-80
2023/07/21 01:34:35;;;;;;;4.50;2.65;;;;;;;25.29;61.85;99234.84;5051184;28;20033;-80
2023/07/21 01:37:02;;;;;;;5.13;2.58;;;;;;;25.23;61.64;99221.00;5051605;28;20033;-81
2023/07/21 01:39:30;;;;;;;3.45;2.25;;;;;;;25.22;61.11;99200.38;5053048;28;20032;-81
2023/07/21 01:41:56;;;;;;;5.45;3.92;;;;;;;25.35;61.09;99214.59;5053247;28;20090;-80
2023/07/21 01:44:22;;;;;;;4.18;2.65;;;;;;;25.41;61.54;99249.19;5052165;28;20534;-80
2023/07/21 01:46:48;;;;;;;8.57;3.42;;;;;;;25.27;62.18;99233.22;5049552;28;20085;-81
2023/07/21 01:49:15;;;;;;;4.07;1.33;;;;;;;25.26;62.08;99237.78;5051315;28;20426;-81
2023/07/21 01:51:43;;;;;;;9.88;3.50;;;;;;;25.03;62.47;99213.56;5053221;28;20430;-82
2023/07/21 01:54:20;;;;;;;3.80;2.58;;;;;;;25.17;62.40;99233.16;5052208;28;20456;-82
2023/07/21 01:56:51;;;;;;;3.83;2.33;;;;;;;24.99;62.83;99241.78;5052662;28;20029;-84
2023/07/21 01:59:19;;;;;;;2.67;2.03;;;;;;;25.03;62.76;99258.56;5052666;28;20038;-82
2023/07/21 02:01:46;;;;;;;2.65;1.45;;;;;;;25.07;62.53;99268.13;5053047;28;20043;-82
2023/07/21 02:04:13;;;;;;;4.53;2.55;;;;;;;24.99;62.09;99241.78;5049865;28;20127;-82
2023/07/21 02:06:38;;;;;;;5.90;2.58;;;;;;;24.98;62.11;99255.41;5051621;28;20072;-82
2023/07/21 02:09:04;;;;;;;3.50;2.20;;;;;;;25.01;61.92;99256.00;5051865;28;20524;-81
2023/07/21 02:11:30;;;;;;;5.07;2.30;;;;;;;24.70;63.36;99249.56;5051216;28;20495;-81
2023/07/21 02:13:57;;;;;;;4.20;2.60;;;;;;;24.67;63.08;99237.19;5052374;28;20052;-82
2023/07/21 02:16:22;;;;;;;4.60;2.28;;;;;;;24.93;63.07;99271.97;5061691;28;20414;-82
2023/07/21 02:18:47;;;;;;;3.22;1.90;;;;;;;24.63;63.37;99241.09;5051776;28;20045;-82
2023/07/21 02:21:13;;;;;;;10.85;1.58;;;;;;;24.55;63.85;99232.75;5051453;28;20037;-81
2023/07/21 02:23:38;;;;;;;8.75;3.13;;;;;;;24.58;64.00;99246.00;5052114;28;20025;-82
2023/07/21 02:26:04;;;;;;;5.80;3.35;;;;;;;24.44;64.51;99247.09;5051776;28;20064;-82
2023/07/21 02:28:29;;;;;;;5.45;2.20;;;;;;;24.50;63.80;99243.06;5052227;28;20131;-82
2023/07/21 02:31:05;;;;;;;7.25;2.25;;;;;;;24.61;63.86;99264.63;5051675;28;20029;-82
2023/07/21 02:33:31;;;;;;;5.13;3.50;;;;;;;24.61;63.59;99270.03;5067093;28;20471;-82
2023/07/21 02:36:02;;;;;;;4.47;2.90;;;;;;;24.67;63.59;99279.47;5051908;28;20025;-81
2023/07/21 02:38:28;;;;;;;5.57;2.55;;;;;;;24.45;63.45;99250.63;5051289;28;20044;-82
2023/07/21 02:40:55;;;;;;;4.63;3.58;;;;;;;24.47;63.49;99273.78;5051399;28;20123;-82
2023/07/21 02:43:23;;;;;;;4.93;2.60;;;;;;;24.56;63.19;99293.78;5051874;28;20025;-83
2023/07/21 02:45:50;;;;;;;7.68;3.10;;;;;;;24.59;63.02;99277.38;5051609;28;20033;-82
2023/07/21 02:48:17;;;;;;;3.83;2.15;;;;;;;24.66;62.90;99280.44;5051677;28;20081;-82
2023/07/21 02:50:47;;;;;;;3.60;2.10;;;;;;;24.55;62.73;99265.09;5051554;28;20116;-81
2023/07/21 02:53:13;;;;;;;6.18;2.00;;;;;;;24.46;62.73;99250.50;5050299;28;20032;-81
2023/07/21 02:55:38;;;;;;;5.53;2.40;;;;;;;24.71;61.96;99290.84;5052129;28;20032;-81
2023/07/21 02:58:04;;;;;;;2.17;1.60;;;;;;;24.63;62.06;99286.09;5048548;28;20134;-82
2023/07/21 03:00:29;;;;;;;1.30;0.90;;;;;;;24.70;62.00;99290.00;5052035;28;20037;-81
2023/07/21 03:02:55;;;;;;;4.07;2.47;;;;;;;24.71;61.94;99293.56;5051529;28;20029;-81
2023/07/21 03:05:21;;;;;;;3.30;2.05;;;;;;;24.52;62.06;99292.28;5051357;28;20463;-80
2023/07/21 03:07:47;;;;;;;5.05;2.58;;;;;;;24.52;61.75;99288.75;5050622;28;20495;-80
2023/07/21 03:10:12;;;;;;;3.85;1.40;;;;;;;24.52;61.64;99297.69;5051534;28;20056;-79
2023/07/21 03:12:38;;;;;;;2.20;1.15;;;;;;;24.63;61.75;99316.59;5051212;28;20510;-79
2023/07/21 03:15:05;;;;;;;2.15;1.50;;;;;;;24.51;62.34;99290.56;5050772;28;20044;-80
2023/07/21 03:17:32;;;;;;;4.82;2.03;;;;;;;24.61;62.36;99315.00;5050665;28;20051;-79
2023/07/21 03:19:57;;;;;;;3.08;1.88;;;;;;;24.62;62.20;99303.22;5050486;28;20032;-79
2023/07/21 03:22:23;;;;;;;9.73;1.73;;;;;;;24.72;62.25;99315.00;5050966;28;20116;-80
2023/07/21 03:24:48;;;;;;;2.25;1.70;;;;;;;24.64;62.33;99318.31;5050707;28;20132;-80
2023/07/21 03:27:14;;;;;;;4.78;2.40;;;;;;;24.76;61.89;99302.13;5050141;28;20148;-82
2023/07/21 03:29:40;;;;;;;2.97;2.08;;;;;;;24.64;61.98;99298.59;5045626;28;20040;-82
2023/07/21 03:32:06;;;;;;;5.70;2.03;;;;;;;24.74;61.39;99321.13;5050922;28;20410;-80
2023/07/21 03:34:31;;;;;;;5.18;2.25;;;;;;;24.57;61.90;99311.69;5050206;28;20029;-80
2023/07/21 03:36:57;;;;;;;5.80;3.33;;;;;;;24.47;62.33;99319.63;5049324;28;20032;-80
2023/07/21 03:39:23;;;;;;;3.45;2.20;;;;;;;24.48;62.62;99315.06;5050424;28;20037;-79
2023/07/21 03:41:49;;;;;;;7.88;2.08;;;;;;;24.76;62.25;99335.38;5050014;28;20021;-80
2023/07/21 03:44:15;;;;;;;8.52;2.92;;;;;;;24.66;62.27;99318.19;5046641;28;20040;-79
2023/07/21 03:46:40;;;;;;;3.38;2.28;;;;;;;24.75;62.82;99335.50;5065339;28;20041;-79
2023/07/21 03:49:06;;;;;;;3.95;2.38;;;;;;;24.68;63.47;99329.69;5050249;28;20081;-79
2023/07/21 03:51:31;;;;;;;6.65;1.70;;;;;;;24.45;63.30;99289.25;5049934;28;20035;-80
2023/07/21 03:53:58;;;;;;;9.88;2.17;;;;;;;24.80;62.93;99317.94;5050636;28;20203;-82
2023/07/21 03:56:26;;;;;;;9.02;3.53;;;;;;;24.83;63.25;99344.66;5049752;28;20037;-81
2023/07/21 03:58:53;;;;;;;8.25;3.20;;;;;;;24.80;63.40;99333.28;5050867;28;20035;-82
2023/07/21 04:01:19;;;;;;;4.70;3.05;;;;;;;24.97;63.24;99342.72;5046465;28;20063;-82
2023/07/21 04:03:44;;;;;;;15.80;4.07;;;;;;;25.08;63.12;99356.19;5050320;28;20104;-82
2023/07/21 04:06:10;;;;;;;4.70;1.98;;;;;;;25.17;62.57;99338.41;5042280;28;20041;-83
2023/07/21 04:08:36;;;;;;;5.93;3.70;;;;;;;25.17;62.63;99335.69;5048285;28;20033;-83
2023/07/21 04:11:02;;;;;;;15.52;3.13;;;;;;;25.33;62.71;99351.50;5045868;28;20029;-82
2023/07/21 04:13:27;;;;;;;6.38;3.22;;;;;;;25.48;62.01;99350.25;5047686;28;20075;-82
2023/07/21 04:15:52;;;;;;;4.70;2.15;;;;;;;25.52;60.82;99351.72;5049646;28;20052;-83
2023/07/21 04:18:18;;;;;;;3.75;2.38;;;;;;;25.35;61.16;99336.06;5049797;28;20506;-83
2023/07/21 04:20:44;;;;;;;6.57;1.98;;;;;;;25.68;60.65;99361.25;5049394;28;20115;-82
2023/07/21 04:23:10;;;;;;;5.07;2.22;;;;;;;25.67;60.11;99346.91;5049376;28;20218;-82
2023/07/21 04:25:35;;;;;;;5.57;2.22;;;;;;;25.93;58.56;99354.63;5046548;28;20414;-82
2023/07/21 04:28:01;;;;;;;6.82;2.10;;;;;;;25.90;58.67;99350.38;5044955;28;20048;-82
2023/07/21 04:30:28;;;;;;;3.58;2.45;;;;;;;26.14;57.84;99375.47;5046548;28;20037;-82
2023/07/21 04:32:53;;;;;;;8.85;2.20;;;;;;;26.18;57.29;99368.81;5063169;28;20422;-82
2023/07/21 04:35:19;;;;;;;1.40;1.30;;;;;;;26.24;55.89;99352.94;5048081;28;20033;-84
2023/07/21 04:37:44;;;;;;;2.00;1.55;;;;;;;26.50;55.32;99363.31;5048060;28;20021;-84
2023/07/21 04:40:11;;;;;;;2.40;1.83;;;;;;;26.57;54.94;99355.53;5049409;28;20037;-83
2023/07/21 04:42:36;;;;;;;10.88;2.10;;;;;;;26.65;54.73;99349.44;5049251;28;20174;-84
2023/07/21 04:45:02;;;;;;;4.95;2.33;;;;;;;26.92;53.34;99375.97;5049660;28;20112;-84
2023/07/21 04:47:28;;;;;;;3.45;1.80;;;;;;;27.03;53.04;99380.44;5064677;28;20041;-84
2023/07/21 04:49:53;;;;;;;2.92;1.67;;;;;;;27.11;52.70;99367.06;5049227;28;20182;-84
2023/07/21 04:52:19;;;;;;;4.47;2.00;;;;;;;27.34;52.46;99383.97;5045760;28;20025;-85
2023/07/21 04:54:44;;;;;;;2.78;1.70;;;;;;;27.31;52.24;99374.31;5050230;28;20099;-85
2023/07/21 04:57:10;;;;;;;3.80;1.77;;;;;;;27.58;52.19;99389.03;5044798;28;20033;-84
2023/07/21 04:59:36;;;;;;;1.63;1.25;;;;;;;27.60;51.67;99378.91;5039025;28;20061;-84
2023/07/21 05:02:02;;;;;;;8.73;2.83;;;;;;;27.53;51.46;99372.34;5049030;28;20112;-83
2023/07/21 05:04:28;;;;;;;2.47;1.70;;;;;;;27.57;51.49;99375.63;5048589;28;20056;-83
2023/07/21 05:06:53;;;;;;;2.83;2.00;;;;;;;27.79;50.13;99377.22;5046189;28;20131;-83
2023/07/21 05:09:19;;;;;;;3.05;1.67;;;;;;;27.93;49.54;99390.38;5045709;28;20036;-84
2023/07/21 05:11:45;;;;;;;2.60;1.70;;;;;;;27.96;48.48;99390.13;5049313;28;20048;-85
2023/07/21 05:14:12;;;;;;;3.45;2.35;;;;;;;27.59;50.24;99355.53;5048185;28;20033;-85
2023/07/21 05:16:37;;;;;;;2.17;1.17;;;;;;;27.78;49.12;99356.56;5049345;28;20037;-86
2023/07/21 05:19:04;;;;;;;2.50;2.25;;;;;;;28.10;47.27;99407.81;5048815;28;20090;-85
2023/07/21 05:21:29;;;;;;;3.92;2.15;;;;;;;28.12;47.06;99399.53;5049679;28;20032;-85
2023/07/21 05:23:55;;;;;;;5.20;1.27;;;;;;;28.30;47.62;99389.69;5049284;28;20028;-85
2023/07/21 05:26:21;;;;;;;3.50;1.80;;;;;;;28.51;47.56;99386.78;5048016;28;20485;-84
2023/07/21 05:28:48;;;;;;;2.67;1.92;;;;;;;28.58;47.25;99370.78;5048877;28;20547;-82
2023/07/21 05:31:14;;;;;;;6.25;2.53;;;;;;;28.91;47.06;99388.41;5049134;28;20549;-83
2023/07/21 05:33:39;;;;;;;2.40;1.80;;;;;;;29.27;46.98;99406.72;5047146;28;20033;-82
2023/07/21 05:36:07;;;;;;;3.25;2.33;;;;;;;29.11;47.15;99386.47;5049059;28;20028;-83
2023/07/21 05:38:37;;;;;;;2.13;1.65;;;;;;;29.45;45.85;99402.19;5047623;28;20068;-83
2023/07/21 05:41:06;;;;;;;3.25;2.42;;;;;;;29.52;46.14;99407.03;5053041;28;20471;-82
2023/07/21 05:43:32;;;;;;;4.40;2.47;;;;;;;29.85;45.36;99410.16;5052754;28;20136;-83
2023/07/21 05:45:58;;;;;;;2.60;1.80;;;;;;;29.55;44.54;99384.97;5052728;28;20025;-83
2023/07/21 05:48:26;;;;;;;3.45;1.33;;;;;;;30.06;44.32;99416.16;5047718;28;20105;-84
2023/07/21 05:50:52;;;;;;;4.05;1.88;;;;;;;30.35;44.37;99395.97;5043241;28;20051;-83
2023/07/21 05:53:19;;;;;;;7.82;1.67;;;;;;;30.52;43.83;99386.09;5041754;28;20479;-84
2023/07/21 05:55:46;;;;;;;2.47;1.48;;;;;;;30.49;43.58;99409.06;5042965;28;20025;-83
2023/07/21 05:58:11;;;;;;;5.32;2.70;;;;;;;30.52;42.36;99375.22;5045576;28;20029;-84
2023/07/21 06:00:38;;;;;;;7.07;1.00;;;;;;;30.62;44.01;99408.63;5046359;28;20506;-83
2023/07/21 06:03:05;;;;;;;5.57;2.33;;;;;;;30.57;43.14;99423.72;5043593;28;20071;-82
2023/07/21 06:05:32;;;;;;;2.58;1.63;;;;;;;31.00;42.54;99422.88;5041983;28;20037;-83
2023/07/21 06:07:57;;;;;;;5.38;2.13;;;;;;;30.52;43.34;99397.00;5045448;28;20420;-83
2023/07/21 06:10:23;;;;;;;7.25;2.65;;;;;;;30.39;43.00;99402.84;5042798;28;20033;-80
2023/07/21 06:12:48;;;;;;;16.55;1.92;;;;;;;31.02;43.90;99417.28;5042056;28;20896;-80
2023/07/21 06:15:14;;;;;;;4.65;2.03;;;;;;;31.50;41.64;99423.09;5044936;28;20044;-80
2023/07/21 06:17:39;;;;;;;2.90;1.88;;;;;;;31.54;41.49;99419.91;5047093;28;20121;-80
2023/07/21 06:20:06;;;;;;;3.70;2.05;;;;;;;31.39;40.70;99402.47;5043832;28;20036;-81
2023/07/21 06:22:32;;;;;;;4.40;1.88;;;;;;;31.81;41.09;99425.25;5043436;28;20025;-80
2023/07/21 06:24:58;;;;;;;7.18;2.80;;;;;;;32.20;39.47;99421.94;5047454;28;20052;-80
2023/07/21 06:27:23;;;;;;;2.30;1.90;;;;;;;32.35;38.28;99414.78;5046420;28;20060;-80
2023/07/21 06:29:49;;;;;;;2.65;0.98;;;;;;;32.45;38.44;99399.06;5045972;28;20040;-83
2023/07/21 06:32:15;;;;;;;9.95;2.55;;;;;;;32.89;38.92;99414.25;5045337;28;20507;-81
2023/07/21 06:34:40;;;;;;;2.15;1.60;;;;;;;33.29;38.13;99411.56;5046243;28;20025;-81
2023/07/21 06:37:06;;;;;;;1.67;0.98;;;;;;;32.58;37.90;99409.50;5046337;28;20025;-81
2023/07/21 06:39:32;;;;;;;10.68;5.57;;;;;;;32.47;38.61;99405.22;5043426;28;20029;-82
2023/07/21 06:41:58;;;;;;;5.35;2.67;;;;;;;32.74;38.29;99416.00;5040463;28;20031;-83
2023/07/21 06:44:24;;;;;;;2.92;1.65;;;;;;;33.32;36.88;99394.81;5043988;28;20025;-82
2023/07/21 06:46:51;;;;;;;3.55;1.58;;;;;;;33.84;35.87;99398.84;5042681;28;20050;-82
2023/07/21 06:49:17;;;;;;;3.17;1.52;;;;;;;34.19;35.56;99386.47;5041904;28;20036;-80
2023/07/21 06:51:43;;;;;;;2.72;1.23;;;;;;;34.25;34.92;99391.22;5040990;28;20466;-82
2023/07/21 06:54:09;;;;;;;2.55;1.63;;;;;;;34.76;34.53;99409.78;5044473;28;20560;-84
2023/07/21 06:56:35;;;;;;;4.90;1.85;;;;;;;34.40;34.31;99385.81;5057013;28;21768;-83
2023/07/21 06:59:01;;;;;;;2.60;1.35;;;;;;;34.39;35.12;99389.56;5043859;28;20028;-82
2023/07/21 07:01:26;;;;;;;2.50;1.08;;;;;;;34.88;33.49;99388.25;5041670;28;20021;-83
2023/07/21 07:03:53;;;;;;;2.25;1.67;;;;;;;34.79;33.50;99382.00;5040622;28;20036;-82
2023/07/21 07:06:18;;;;;;;3.38;2.28;;;;;;;35.26;33.15;99390.06;5044104;28;20028;-82
2023/07/21 07:08:44;;;;;;;4.90;1.35;;;;;;;35.17;31.68;99378.31;5043035;28;20033;-83
2023/07/21 07:11:11;;;;;;;4.05;2.88;;;;;;;35.11;32.31;99385.44;5043944;28;20024;-80
2023/07/21 07:13:36;;;;;;;9.88;2.05;;;;;;;34.76;33.45;99374.19;5042317;28;20116;-82
2023/07/21 07:16:03;;;;;;;3.40;1.73;;;;;;;34.96;33.79;99354.44;5042929;28;20059;-83
2023/07/21 07:18:28;;;;;;;2.97;1.33;;;;;;;35.45;33.72;99370.28;5042183;28;20025;-82
2023/07/21 07:20:54;;;;;;;2.08;1.85;;;;;;;35.59;33.26;99360.31;5041407;28;20021;-82
2023/07/21 07:23:20;;;;;;;8.68;1.65;;;;;;;36.01;30.68;99377.03;5041466;28;20316;-82
2023/07/21 07:25:50;;;;;;;2.20;1.25;;;;;;;36.37;31.09;99384.34;5046071;28;20039;-82
2023/07/21 07:28:17;;;;;;;5.65;2.83;;;;;;;36.36;29.92;99368.91;5045086;28;20453;-81
2023/07/21 07:30:42;;;;;;;1.35;1.05;;;;;;;36.60;30.33;99369.53;5043790;28;20090;-82
2023/07/21 07:33:08;;;;;;;8.93;2.42;;;;;;;36.61;29.87;99377.59;5042958;28;20029;-81
2023/07/21 07:35:33;;;;;;;3.75;2.15;;;;;;;36.63;31.39;99389.22;5043685;28;20475;-82
2023/07/21 07:37:59;;;;;;;7.63;2.47;;;;;;;36.89;30.71;99385.84;5046218;28;20025;-83
2023/07/21 07:40:25;;;;;;;5.18;2.15;;;;;;;37.07;30.87;99396.28;5043064;28;20765;-82
2023/07/21 07:42:51;;;;;;;5.15;1.98;;;;;;;37.30;30.88;99378.66;5044085;28;20452;-82
2023/07/21 07:45:16;;;;;;;3.35;1.50;;;;;;;37.24;29.57;99398.72;5044907;28;20468;-83
2023/07/21 07:47:45;;;;;;;3.20;1.88;;;;;;;36.86;28.86;99390.88;5038790;28;20542;-82
2023/07/21 07:50:13;;;;;;;15.70;2.25;;;;;;;36.54;29.17;99368.44;5043013;28;20029;-81
2023/07/21 07:52:42;;;;;;;3.72;1.77;;;;;;;36.38;28.74;99353.97;5042499;28;20033;-82
2023/07/21 07:55:09;;;;;;;8.35;1.95;;;;;;;36.97;28.46;99381.19;5041136;28;20141;-81
2023/07/21 07:57:34;;;;;;;3.83;1.52;;;;;;;37.01;28.40;99377.84;5040378;28;21727;-82
2023/07/21 07:59:59;;;;;;;2.42;1.23;;;;;;;36.91;29.67;99383.72;5041592;28;20028;-83
2023/07/21 08:02:25;;;;;;;3.38;1.55;;;;;;;36.70;28.71;99370.88;5037368;28;20060;-82
2023/07/21 08:04:50;;;;;;;2.22;1.25;;;;;;;36.49;28.25;99357.22;5039771;28;20396;-81
2023/07/21 08:07:18;;;;;;;3.75;1.83;;;;;;;36.53;28.71;99366.72;5040335;28;20560;-82
2023/07/21 08:09:43;;;;;;;1.13;1.02;;;;;;;36.71;27.75;99382.72;5041692;28;20029;-82
2023/07/21 08:12:09;;;;;;;3.05;1.20;;;;;;;36.77;28.73;99368.22;5040524;28;20024;-83
2023/07/21 08:14:34;;;;;;;2.45;1.30;;;;;;;36.42;28.01;99381.84;5038704;28;20052;-83
2023/07/21 08:17:03;;;;;;;2.88;1.77;;;;;;;36.55;28.34;99379.22;5039133;28;20033;-83
2023/07/21 08:19:32;;;;;;;1.00;0.90;;;;;;;36.29;28.58;99349.66;5041680;28;20025;-83
2023/07/21 08:22:01;;;;;;;2.05;1.20;;;;;;;36.51;29.00;99386.16;5045245;28;20021;-83
2023/07/21 08:24:27;;;;;;;2.78;1.42;;;;;;;36.99;28.28;99384.63;5041901;28;20057;-82
2023/07/21 08:26:53;;;;;;;1.98;1.25;;;;;;;37.03;27.74;99350.16;5043349;28;20444;-82
2023/07/21 08:29:18;;;;;;;9.93;2.25;;;;;;;37.44;27.85;99377.66;5042146;28;20029;-83
2023/07/21 08:31:43;;;;;;;17.13;2.28;;;;;;;37.73;27.35;99388.59;5043875;28;20037;-81
2023/07/21 08:34:10;;;;;;;1.42;0.82;;;;;;;37.21;28.05;99360.63;5056801;28;20106;-82
2023/07/21 08:36:35;;;;;;;3.50;1.90;;;;;;;37.16;27.28;99368.63;5041287;28;20024;-79
2023/07/21 08:39:00;;;;;;;2.65;1.50;;;;;;;37.17;27.46;99378.56;5042813;28;20036;-83
2023/07/21 08:41:26;;;;;;;1.17;0.73;;;;;;;37.41;27.09;99385.47;5041745;28;20029;-82
2023/07/21 08:43:52;;;;;;;2.42;1.05;;;;;;;37.06;26.75;99356.13;5040741;28;20491;-81
2023/07/21 08:46:18;;;;;;;2.58;1.30;;;;;;;37.32;26.93;99382.03;5038833;28;20025;-81
2023/07/21 08:48:45;;;;;;;1.73;0.70;;;;;;;37.04;27.68;99360.09;5041756;28;20021;-82
2023/07/21 08:51:11;;;;;;;1.50;1.30;;;;;;;37.06;27.60;99386.34;5041997;28;20021;-81
2023/07/21 08:53:37;;;;;;;2.47;1.13;;;;;;;36.94;28.44;99376.09;5039092;28;20494;-83
2023/07/21 08:56:02;;;;;;;2.67;1.38;;;;;;;37.33;27.18;99380.16;5041072;28;20025;-81
2023/07/21 08:58:28;;;;;;;4.57;1.83;;;;;;;37.09;26.47;99374.94;5042734;28;20475;-82
2023/07/21 09:00:55;;;;;;;2.35;1.05;;;;;;;37.04;27.01;99380.19;5044595;28;20037;-81
2023/07/21 09:03:29;;;;;;;2.17;1.60;;;;;;;36.93;26.74;99361.53;5058518;28;20041;-81
2023/07/21 09:05:57;;;;;;;2.38;1.13;;;;;;;37.06;26.15;99369.84;5040452;28;21234;-83
2023/07/21 09:08:32;;;;;;;2.17;0.65;;;;;;;37.49;26.47;99373.44;5041730;28;20534;-81
2023/07/21 09:11:01;;;;;;;1.67;1.20;;;;;;;37.67;26.24;99364.63;5039835;28;20163;-81
2023/07/21 09:13:28;;;;;;;10.07;3.42;;;;;;;37.33;25.92;99369.16;5041889;28;20048;-80
2023/07/21 09:15:58;;;;;;;2.35;1.15;;;;;;;37.46;26.42;99374.69;5044525;28;20053;-83
2023/07/21 09:18:28;;;;;;;6.30;0.75;;;;;;;37.41;26.55;99363.47;5041944;28;20037;-80
2023/07/21 09:20:55;;;;;;;2.25;1.10;;;;;;;37.05;26.52;99375.56;5046169;28;20033;-81
2023/07/21 09:23:21;;;;;;;1.85;1.10;;;;;;;36.78;26.36;99363.56;5043535;28;20029;-81
2023/07/21 09:25:53;;;;;;;0.88;0.73;;;;;;;36.98;25.98;99339.78;5041158;28;20488;-80
2023/07/21 09:28:20;;;;;;;0.75;0.70;;;;;;;37.08;26.19;99348.50;5044391;28;20021;-82
2023/07/21 09:30:52;;;;;;;8.63;1.33;;;;;;;37.33;26.73;99364.50;5041898;28;20021;-82
2023/07/21 09:33:23;;;;;;;1.45;1.17;;;;;;;37.18;26.14;99355.53;5042292;28;20052;-82
2023/07/21 09:35:49;;;;;;;1.83;1.02;;;;;;;36.88;25.71;99373.13;5042699;28;20071;-79
2023/07/21 09:38:15;;;;;;;3.58;1.52;;;;;;;37.27;26.22;99368.91;5045209;28;20111;-81
2023/07/21 09:40:44;;;;;;;3.03;1.67;;;;;;;37.20;25.54;99321.28;5041596;28;20142;-80
2023/07/21 09:43:10;;;;;;;5.53;1.38;;;;;;;37.45;26.23;99362.84;5044416;28;20035;-80
2023/07/21 09:45:39;;;;;;;2.47;0.73;;;;;;;37.04;26.31;99327.13;5042195;28;20024;-80
2023/07/21 09:48:05;;;;;;;4.07;1.63;;;;;;;36.92;27.69;99341.47;5043733;28;20028;-81
2023/07/21 09:50:30;;;;;;;1.45;0.90;;;;;;;36.82;25.90;99308.00;5043556;28;20025;-80
2023/07/21 09:52:55;;;;;;;2.42;1.02;;;;;;;36.97;27.15;99318.88;5046300;28;20661;-82
2023/07/21 09:55:22;;;;;;;2.13;1.38;;;;;;;37.40;26.10;99346.13;5042207;28;20036;-81
2023/07/21 09:57:49;;;;;;;1.73;0.90;;;;;;;37.17;25.93;99332.69;5040358;28;20044;-82
2023/07/21 10:00:16;;;;;;;2.33;1.40;;;;;;;37.05;26.62;99326.09;5044379;28;20033;-81
2023/07/21 10:02:51;;;;;;;1.00;0.77;;;;;;;37.52;26.55;99346.38;5045565;28;20396;-81
2023/07/21 10:05:17;;;;;;;1.75;1.00;;;;;;;37.45;25.81;99329.84;5043821;28;20511;-81
2023/07/21 10:07:46;;;;;;;2.92;1.60;;;;;;;37.62;26.13;99313.81;5052988;28;20064;-80
2023/07/21 10:10:12;;;;;;;2.97;1.17;;;;;;;37.55;27.09;99337.69;5038437;28;20482;-80
2023/07/21 10:12:56;;;;;;;4.60;1.77;;;;;;;37.41;25.76;99327.72;5040828;28;20029;-81
2023/07/21 10:15:42;;;;;;;2.58;1.50;;;;;;;37.77;26.62;99330.19;5042780;28;21032;-81
2023/07/21 10:18:12;;;;;;;2.10;1.23;;;;;;;37.33;25.86;99326.00;5046112;28;20028;-82
2023/07/21 10:20:38;;;;;;;2.88;1.38;;;;;;;37.39;25.64;99349.94;5038990;28;20062;-82
2023/07/21 10:23:04;;;;;;;1.83;1.10;;;;;;;37.43;26.38;99340.22;5042734;28;20025;-82
2023/07/21 10:25:44;;;;;;;1.77;1.13;;;;;;;37.04;25.88;99297.72;5038384;28;20036;-82
2023/07/21 10:28:12;;;;;;;2.70;1.00;;;;;;;37.14;27.11;99305.63;5042680;28;20025;-82
2023/07/21 10:30:37;;;;;;;2.05;1.70;;;;;;;37.33;26.22;99331.50;5040982;28;20040;-82
2023/07/21 10:33:21;;;;;;;3.65;1.10;;;;;;;36.75;26.18;99312.63;5041071;28;20033;-81
2023/07/21 10:35:48;;;;;;;0.98;0.75;;;;;;;37.08;26.20;99322.94;5040739;28;20429;-81
2023/07/21 10:38:13;;;;;;;1.90;1.30;;;;;;;37.56;26.17;99316.56;5042385;28;20113;-80
2023/07/21 10:40:41;;;;;;;1.50;1.17;;;;;;;37.08;25.97;99284.44;5042226;28;20033;-80
2023/07/21 10:43:06;;;;;;;5.57;1.02;;;;;;;37.16;25.63;99314.50;5041067;28;20107;-80
2023/07/21 10:45:32;;;;;;;6.90;1.50;;;;;;;37.07;24.91;99313.81;5041718;28;20116;-81
2023/07/21 10:48:11;;;;;;;3.95;1.85;;;;;;;37.26;25.24;99315.00;5045736;28;20041;-82
2023/07/21 10:50:54;;;;;;;1.33;0.80;;;;;;;37.32;25.85;99296.81;5044685;28;20043;-81
2023/07/21 10:53:25;;;;;;;10.77;1.45;;;;;;;36.99;26.28;99310.41;5038347;28;20044;-79
2023/07/21 10:55:52;;;;;;;5.72;1.23;;;;;;;37.21;25.78;99311.13;5042450;28;20033;-80
2023/07/21 10:58:18;;;;;;;8.98;1.95;;;;;;;37.00;25.75;99282.72;5040956;28;20024;-82
2023/07/21 11:00:49;;;;;;;2.42;1.50;;;;;;;37.37;25.77;99296.19;5035672;28;20075;-81
2023/07/21 11:03:16;;;;;;;11.52;2.83;;;;;;;37.37;25.74;99282.44;5038735;28;20029;-79
2023/07/21 11:05:41;;;;;;;4.78;1.85;;;;;;;37.39;25.47;99307.84;5042305;28;20060;-81
2023/07/21 11:08:26;;;;;;;1.60;1.20;;;;;;;36.67;25.62;99272.41;5042468;28;20060;-80
2023/07/21 11:10:52;;;;;;;2.30;1.08;;;;;;;36.62;25.98;99285.88;5041633;28;20033;-80
2023/07/21 11:13:17;;;;;;;2.08;1.15;;;;;;;36.37;26.18;99271.78;5042917;28;20029;-81
2023/07/21 11:15:53;;;;;;;1.80;1.05;;;;;;;36.81;26.04;99272.47;5041371;28;20067;-80
2023/07/21 11:18:20;;;;;;;6.03;1.27;;;;;;;37.27;25.36;99286.44;5059203;28;20996;-80
2023/07/21 11:20:55;;;;;;;0.88;0.73;;;;;;;37.06;25.39;99242.56;5041634;28;20028;-81
2023/07/21 11:23:21;;;;;;;2.40;1.48;;;;;;;37.38;24.94;99289.63;5041115;28;20041;-82
2023/07/21 11:26:07;;;;;;;3.83;1.52;;;;;;;37.68;24.48;99281.00;5042591;28;20029;-82
2023/07/21 11:28:34;;;;;;;7.00;2.05;;;;;;;37.29;25.21;99253.22;5045515;28;20025;-81
2023/07/21 11:31:00;;;;;;;1.88;1.48;;;;;;;37.15;25.26;99263.31;5047114;28;20032;-84
2023/07/21 11:33:43;;;;;;;1.92;1.13;;;;;;;37.21;25.80;99250.66;5050344;28;20032;-79